sensor_id;sensor_type;location;lat;lon;timestamp;P1;durP1;ratioP1;P2;durP2;ratioP2
52776;SDS011;38656;54.260;20.822;2023-12-20T00:01:36;19.58;;;17.45;;
52776;SDS011;38656;54.260;20.822;2023-12-20T00:04:02;15.68;;;14.18;;
52776;SDS011;38656;54.260;20.822;2023-12-20T00:06:31;12.40;;;11.23;;
52776;SDS011;38656;54.260;20.822;2023-12-20T00:08:57;23.88;;;21.50;;
52776;SDS011;38656;54.260;20.822;2023-12-20T00:11:24;12.55;;;11.25;;
52776;SDS011;38656;54.260;20.822;2023-12-20T00:13:50;11.07;;;10.15;;
52776;SDS011;38656;54.260;20.822;2023-12-20T00:16:16;11.73;;;10.63;;
52776;SDS011;38656;54.260;20.822;2023-12-20T00:18:43;13.30;;;12.20;;
52776;SDS011;38656;54.260;20.822;2023-12-20T00:21:09;9.02;;;8.32;;
52776;SDS011;38656;54.260;20.822;2023-12-20T00:23:35;8.48;;;7.78;;
52776;SDS011;38656;54.260;20.822;2023-12-20T00:26:01;11.77;;;10.88;;
52776;SDS011;38656;54.260;20.822;2023-12-20T00:28:27;9.50;;;8.70;;
52776;SDS011;38656;54.260;20.822;2023-12-20T00:30:54;12.27;;;11.27;;
52776;SDS011;38656;54.260;20.822;2023-12-20T00:33:20;12.23;;;11.18;;
52776;SDS011;38656;54.260;20.822;2023-12-20T00:35:46;11.48;;;10.57;;
52776;SDS011;38656;54.260;20.822;2023-12-20T00:38:13;10.07;;;9.38;;
52776;SDS011;38656;54.260;20.822;2023-12-20T00:40:39;9.27;;;8.45;;
52776;SDS011;38656;54.260;20.822;2023-12-20T00:43:05;9.30;;;8.60;;
52776;SDS011;38656;54.260;20.822;2023-12-20T00:45:31;12.07;;;11.10;;
52776;SDS011;38656;54.260;20.822;2023-12-20T00:47:58;10.82;;;10.00;;
52776;SDS011;38656;54.260;20.822;2023-12-20T00:50:24;11.98;;;10.98;;
52776;SDS011;38656;54.260;20.822;2023-12-20T00:52:50;11.50;;;10.60;;
52776;SDS011;38656;54.260;20.822;2023-12-20T00:55:16;12.07;;;11.18;;
52776;SDS011;38656;54.260;20.822;2023-12-20T00:57:42;11.27;;;10.38;;
52776;SDS011;38656;54.260;20.822;2023-12-20T01:00:09;8.75;;;7.93;;
52776;SDS011;38656;54.260;20.822;2023-12-20T01:02:35;11.48;;;10.55;;
52776;SDS011;38656;54.260;20.822;2023-12-20T01:05:01;11.52;;;10.52;;
52776;SDS011;38656;54.260;20.822;2023-12-20T01:07:28;11.57;;;10.57;;
52776;SDS011;38656;54.260;20.822;2023-12-20T01:09:54;13.15;;;12.15;;
52776;SDS011;38656;54.260;20.822;2023-12-20T01:12:20;11.60;;;10.57;;
52776;SDS011;38656;54.260;20.822;2023-12-20T01:14:46;12.57;;;11.57;;
52776;SDS011;38656;54.260;20.822;2023-12-20T01:17:12;9.73;;;8.57;;
52776;SDS011;38656;54.260;20.822;2023-12-20T01:19:39;9.55;;;8.85;;
52776;SDS011;38656;54.260;20.822;2023-12-20T01:22:05;10.30;;;9.43;;
52776;SDS011;38656;54.260;20.822;2023-12-20T01:24:31;10.63;;;9.82;;
52776;SDS011;38656;54.260;20.822;2023-12-20T01:26:57;12.20;;;11.40;;
52776;SDS011;38656;54.260;20.822;2023-12-20T01:29:23;12.18;;;11.25;;
52776;SDS011;38656;54.260;20.822;2023-12-20T01:31:49;12.50;;;11.43;;
52776;SDS011;38656;54.260;20.822;2023-12-20T01:34:16;10.70;;;10.00;;
52776;SDS011;38656;54.260;20.822;2023-12-20T01:36:42;9.10;;;8.30;;
52776;SDS011;38656;54.260;20.822;2023-12-20T01:39:08;7.85;;;7.25;;
52776;SDS011;38656;54.260;20.822;2023-12-20T01:41:34;9.27;;;8.68;;
52776;SDS011;38656;54.260;20.822;2023-12-20T01:44:01;10.23;;;9.43;;
52776;SDS011;38656;54.260;20.822;2023-12-20T01:46:27;8.88;;;8.18;;
52776;SDS011;38656;54.260;20.822;2023-12-20T01:48:53;12.18;;;11.07;;
52776;SDS011;38656;54.260;20.822;2023-12-20T01:51:19;12.05;;;11.25;;
52776;SDS011;38656;54.260;20.822;2023-12-20T01:53:46;15.73;;;14.63;;
52776;SDS011;38656;54.260;20.822;2023-12-20T01:56:13;11.35;;;10.55;;
52776;SDS011;38656;54.260;20.822;2023-12-20T01:58:42;16.17;;;14.98;;
52776;SDS011;38656;54.260;20.822;2023-12-20T02:01:11;14.00;;;12.90;;
52776;SDS011;38656;54.260;20.822;2023-12-20T02:03:38;15.82;;;14.50;;
52776;SDS011;38656;54.260;20.822;2023-12-20T02:06:06;16.17;;;14.68;;
52776;SDS011;38656;54.260;20.822;2023-12-20T02:08:33;14.20;;;13.05;;
52776;SDS011;38656;54.260;20.822;2023-12-20T02:11:00;11.23;;;10.43;;
52776;SDS011;38656;54.260;20.822;2023-12-20T02:13:26;10.25;;;9.48;;
52776;SDS011;38656;54.260;20.822;2023-12-20T02:15:52;9.60;;;8.90;;
52776;SDS011;38656;54.260;20.822;2023-12-20T02:18:19;9.13;;;8.40;;
52776;SDS011;38656;54.260;20.822;2023-12-20T02:20:46;7.28;;;6.68;;
52776;SDS011;38656;54.260;20.822;2023-12-20T02:23:12;6.40;;;5.93;;
52776;SDS011;38656;54.260;20.822;2023-12-20T02:25:38;5.07;;;4.68;;
52776;SDS011;38656;54.260;20.822;2023-12-20T02:28:05;3.13;;;2.90;;
52776;SDS011;38656;54.260;20.822;2023-12-20T02:30:31;1.50;;;1.40;;
52776;SDS011;38656;54.260;20.822;2023-12-20T02:32:59;1.27;;;1.27;;
52776;SDS011;38656;54.260;20.822;2023-12-20T02:35:26;1.52;;;0.90;;
52776;SDS011;38656;54.260;20.822;2023-12-20T02:37:52;1.15;;;0.82;;
52776;SDS011;38656;54.260;20.822;2023-12-20T02:40:18;1.20;;;1.10;;
52776;SDS011;38656;54.260;20.822;2023-12-20T02:42:44;2.05;;;1.55;;
52776;SDS011;38656;54.260;20.822;2023-12-20T02:45:11;1.90;;;1.10;;
52776;SDS011;38656;54.260;20.822;2023-12-20T02:47:37;0.85;;;0.85;;
52776;SDS011;38656;54.260;20.822;2023-12-20T02:50:03;1.25;;;1.13;;
52776;SDS011;38656;54.260;20.822;2023-12-20T02:52:29;0.57;;;0.57;;
52776;SDS011;38656;54.260;20.822;2023-12-20T02:54:55;1.05;;;0.90;;
52776;SDS011;38656;54.260;20.822;2023-12-20T02:57:22;2.20;;;1.10;;
52776;SDS011;38656;54.260;20.822;2023-12-20T02:59:48;3.38;;;0.90;;
52776;SDS011;38656;54.260;20.822;2023-12-20T03:02:14;2.97;;;0.90;;
52776;SDS011;38656;54.260;20.822;2023-12-20T03:04:40;0.50;;;0.50;;
52776;SDS011;38656;54.260;20.822;2023-12-20T03:07:06;2.28;;;0.80;;
52776;SDS011;38656;54.260;20.822;2023-12-20T03:09:32;3.28;;;0.93;;
52776;SDS011;38656;54.260;20.822;2023-12-20T03:11:58;1.60;;;0.77;;
52776;SDS011;38656;54.260;20.822;2023-12-20T03:14:24;3.35;;;1.30;;
52776;SDS011;38656;54.260;20.822;2023-12-20T03:16:50;1.52;;;1.35;;
52776;SDS011;38656;54.260;20.822;2023-12-20T03:19:17;2.40;;;1.58;;
52776;SDS011;38656;54.260;20.822;2023-12-20T03:21:46;1.83;;;1.65;;
52776;SDS011;38656;54.260;20.822;2023-12-20T03:24:13;1.40;;;1.30;;
52776;SDS011;38656;54.260;20.822;2023-12-20T03:26:39;2.85;;;1.48;;
52776;SDS011;38656;54.260;20.822;2023-12-20T03:29:05;2.15;;;1.83;;
52776;SDS011;38656;54.260;20.822;2023-12-20T03:31:31;3.08;;;2.78;;
52776;SDS011;38656;54.260;20.822;2023-12-20T03:33:57;4.50;;;4.10;;
52776;SDS011;38656;54.260;20.822;2023-12-20T03:36:23;5.00;;;4.25;;
52776;SDS011;38656;54.260;20.822;2023-12-20T03:38:49;5.97;;;3.67;;
52776;SDS011;38656;54.260;20.822;2023-12-20T03:41:16;5.10;;;4.32;;
52776;SDS011;38656;54.260;20.822;2023-12-20T03:43:42;4.25;;;2.95;;
52776;SDS011;38656;54.260;20.822;2023-12-20T03:46:08;4.20;;;2.78;;
52776;SDS011;38656;54.260;20.822;2023-12-20T03:48:34;4.03;;;2.90;;
52776;SDS011;38656;54.260;20.822;2023-12-20T03:51:00;6.55;;;3.85;;
52776;SDS011;38656;54.260;20.822;2023-12-20T03:53:27;6.18;;;4.78;;
52776;SDS011;38656;54.260;20.822;2023-12-20T03:55:53;4.80;;;3.97;;
52776;SDS011;38656;54.260;20.822;2023-12-20T03:58:19;7.43;;;3.67;;
52776;SDS011;38656;54.260;20.822;2023-12-20T04:00:45;7.50;;;4.20;;
52776;SDS011;38656;54.260;20.822;2023-12-20T04:03:11;6.75;;;3.72;;
52776;SDS011;38656;54.260;20.822;2023-12-20T04:05:40;1.90;;;1.42;;
52776;SDS011;38656;54.260;20.822;2023-12-20T04:08:07;17.02;;;13.30;;
52776;SDS011;38656;54.260;20.822;2023-12-20T04:10:34;11.30;;;3.38;;
52776;SDS011;38656;54.260;20.822;2023-12-20T04:13:02;3.85;;;1.65;;
52776;SDS011;38656;54.260;20.822;2023-12-20T04:15:28;4.47;;;2.33;;
52776;SDS011;38656;54.260;20.822;2023-12-20T04:17:55;6.90;;;2.60;;
52776;SDS011;38656;54.260;20.822;2023-12-20T04:20:21;7.35;;;2.30;;
52776;SDS011;38656;54.260;20.822;2023-12-20T04:22:47;8.25;;;3.13;;
52776;SDS011;38656;54.260;20.822;2023-12-20T04:25:13;4.72;;;2.63;;
52776;SDS011;38656;54.260;20.822;2023-12-20T04:27:39;3.65;;;2.03;;
52776;SDS011;38656;54.260;20.822;2023-12-20T04:30:05;4.65;;;2.67;;
52776;SDS011;38656;54.260;20.822;2023-12-20T04:32:32;9.45;;;3.60;;
52776;SDS011;38656;54.260;20.822;2023-12-20T04:34:58;4.45;;;2.30;;
52776;SDS011;38656;54.260;20.822;2023-12-20T04:37:24;7.90;;;2.72;;
52776;SDS011;38656;54.260;20.822;2023-12-20T04:39:51;7.10;;;2.85;;
52776;SDS011;38656;54.260;20.822;2023-12-20T04:42:17;5.10;;;1.80;;
52776;SDS011;38656;54.260;20.822;2023-12-20T04:44:43;5.15;;;2.40;;
52776;SDS011;38656;54.260;20.822;2023-12-20T04:47:09;8.18;;;4.50;;
52776;SDS011;38656;54.260;20.822;2023-12-20T04:49:36;6.57;;;3.85;;
52776;SDS011;38656;54.260;20.822;2023-12-20T04:52:02;8.77;;;5.75;;
52776;SDS011;38656;54.260;20.822;2023-12-20T04:54:28;8.20;;;4.45;;
52776;SDS011;38656;54.260;20.822;2023-12-20T04:56:54;6.18;;;5.13;;
52776;SDS011;38656;54.260;20.822;2023-12-20T04:59:20;10.82;;;5.88;;
52776;SDS011;38656;54.260;20.822;2023-12-20T05:01:47;18.60;;;8.00;;
52776;SDS011;38656;54.260;20.822;2023-12-20T05:04:13;13.15;;;8.45;;
52776;SDS011;38656;54.260;20.822;2023-12-20T05:06:39;10.68;;;5.85;;
52776;SDS011;38656;54.260;20.822;2023-12-20T05:09:06;20.98;;;11.07;;
52776;SDS011;38656;54.260;20.822;2023-12-20T05:11:32;26.05;;;14.05;;
52776;SDS011;38656;54.260;20.822;2023-12-20T05:13:58;12.75;;;7.95;;
52776;SDS011;38656;54.260;20.822;2023-12-20T05:16:24;10.50;;;4.75;;
52776;SDS011;38656;54.260;20.822;2023-12-20T05:18:50;17.95;;;5.43;;
52776;SDS011;38656;54.260;20.822;2023-12-20T05:21:17;14.60;;;6.18;;
52776;SDS011;38656;54.260;20.822;2023-12-20T05:23:44;6.10;;;2.70;;
52776;SDS011;38656;54.260;20.822;2023-12-20T05:26:10;13.77;;;4.68;;
52776;SDS011;38656;54.260;20.822;2023-12-20T05:28:36;15.52;;;7.70;;
52776;SDS011;38656;54.260;20.822;2023-12-20T05:31:03;17.27;;;9.70;;
52776;SDS011;38656;54.260;20.822;2023-12-20T05:33:29;15.60;;;9.73;;
52776;SDS011;38656;54.260;20.822;2023-12-20T05:35:55;22.73;;;11.40;;
52776;SDS011;38656;54.260;20.822;2023-12-20T05:38:21;16.52;;;8.75;;
52776;SDS011;38656;54.260;20.822;2023-12-20T05:40:47;9.30;;;5.20;;
52776;SDS011;38656;54.260;20.822;2023-12-20T05:43:13;11.75;;;8.98;;
52776;SDS011;38656;54.260;20.822;2023-12-20T05:45:39;14.35;;;8.60;;
52776;SDS011;38656;54.260;20.822;2023-12-20T05:48:06;47.63;;;24.80;;
52776;SDS011;38656;54.260;20.822;2023-12-20T05:50:32;59.92;;;45.97;;
52776;SDS011;38656;54.260;20.822;2023-12-20T05:52:59;75.25;;;52.15;;
52776;SDS011;38656;54.260;20.822;2023-12-20T05:55:26;78.60;;;52.78;;
52776;SDS011;38656;54.260;20.822;2023-12-20T05:57:52;487.15;;;217.32;;
52776;SDS011;38656;54.260;20.822;2023-12-20T06:00:18;249.98;;;109.90;;
52776;SDS011;38656;54.260;20.822;2023-12-20T06:02:44;292.55;;;114.50;;
52776;SDS011;38656;54.260;20.822;2023-12-20T06:05:10;64.88;;;38.25;;
52776;SDS011;38656;54.260;20.822;2023-12-20T06:07:37;76.88;;;40.92;;
52776;SDS011;38656;54.260;20.822;2023-12-20T06:10:03;25.73;;;19.60;;
52776;SDS011;38656;54.260;20.822;2023-12-20T06:12:31;45.85;;;35.15;;
52776;SDS011;38656;54.260;20.822;2023-12-20T06:14:58;57.92;;;36.03;;
52776;SDS011;38656;54.260;20.822;2023-12-20T06:17:24;27.60;;;18.30;;
52776;SDS011;38656;54.260;20.822;2023-12-20T06:19:51;29.70;;;14.55;;
52776;SDS011;38656;54.260;20.822;2023-12-20T06:22:17;20.83;;;12.35;;
52776;SDS011;38656;54.260;20.822;2023-12-20T06:24:43;17.52;;;11.02;;
52776;SDS011;38656;54.260;20.822;2023-12-20T06:27:09;16.80;;;10.35;;
52776;SDS011;38656;54.260;20.822;2023-12-20T06:29:35;20.42;;;11.75;;
52776;SDS011;38656;54.260;20.822;2023-12-20T06:32:01;15.27;;;7.32;;
52776;SDS011;38656;54.260;20.822;2023-12-20T06:34:28;18.20;;;9.90;;
52776;SDS011;38656;54.260;20.822;2023-12-20T06:36:54;17.33;;;8.88;;
52776;SDS011;38656;54.260;20.822;2023-12-20T06:39:20;23.48;;;11.88;;
52776;SDS011;38656;54.260;20.822;2023-12-20T06:41:46;23.63;;;13.43;;
52776;SDS011;38656;54.260;20.822;2023-12-20T06:44:12;21.10;;;12.20;;
52776;SDS011;38656;54.260;20.822;2023-12-20T06:46:38;28.13;;;15.70;;
52776;SDS011;38656;54.260;20.822;2023-12-20T06:49:05;26.83;;;15.25;;
52776;SDS011;38656;54.260;20.822;2023-12-20T06:51:31;38.17;;;16.88;;
52776;SDS011;38656;54.260;20.822;2023-12-20T06:53:57;36.83;;;16.65;;
52776;SDS011;38656;54.260;20.822;2023-12-20T06:56:27;32.20;;;18.58;;
52776;SDS011;38656;54.260;20.822;2023-12-20T06:58:53;33.72;;;14.45;;
52776;SDS011;38656;54.260;20.822;2023-12-20T07:01:20;16.83;;;7.47;;
52776;SDS011;38656;54.260;20.822;2023-12-20T07:03:46;24.00;;;11.25;;
52776;SDS011;38656;54.260;20.822;2023-12-20T07:06:12;24.25;;;10.23;;
52776;SDS011;38656;54.260;20.822;2023-12-20T07:08:41;33.28;;;15.30;;
52776;SDS011;38656;54.260;20.822;2023-12-20T07:11:07;22.33;;;11.85;;
52776;SDS011;38656;54.260;20.822;2023-12-20T07:13:33;25.15;;;8.60;;
52776;SDS011;38656;54.260;20.822;2023-12-20T07:16:00;18.17;;;6.90;;
52776;SDS011;38656;54.260;20.822;2023-12-20T07:18:26;13.85;;;5.07;;
52776;SDS011;38656;54.260;20.822;2023-12-20T07:20:52;15.93;;;6.53;;
52776;SDS011;38656;54.260;20.822;2023-12-20T07:23:19;8.18;;;3.97;;
52776;SDS011;38656;54.260;20.822;2023-12-20T07:25:46;17.40;;;4.95;;
52776;SDS011;38656;54.260;20.822;2023-12-20T07:28:13;5.53;;;3.55;;
52776;SDS011;38656;54.260;20.822;2023-12-20T07:30:39;11.07;;;3.45;;
52776;SDS011;38656;54.260;20.822;2023-12-20T07:33:05;8.80;;;3.42;;
52776;SDS011;38656;54.260;20.822;2023-12-20T07:35:33;5.97;;;2.60;;
52776;SDS011;38656;54.260;20.822;2023-12-20T07:38:00;12.88;;;4.03;;
52776;SDS011;38656;54.260;20.822;2023-12-20T07:40:27;19.38;;;13.50;;
52776;SDS011;38656;54.260;20.822;2023-12-20T07:42:53;34.78;;;25.75;;
52776;SDS011;38656;54.260;20.822;2023-12-20T07:45:20;26.85;;;17.08;;
52776;SDS011;38656;54.260;20.822;2023-12-20T07:47:46;20.38;;;11.02;;
52776;SDS011;38656;54.260;20.822;2023-12-20T07:50:14;9.48;;;4.78;;
52776;SDS011;38656;54.260;20.822;2023-12-20T07:52:40;19.95;;;7.18;;
52776;SDS011;38656;54.260;20.822;2023-12-20T07:55:06;14.60;;;6.65;;
52776;SDS011;38656;54.260;20.822;2023-12-20T07:57:33;14.80;;;4.90;;
52776;SDS011;38656;54.260;20.822;2023-12-20T07:59:59;14.02;;;4.95;;
52776;SDS011;38656;54.260;20.822;2023-12-20T08:02:26;21.75;;;8.90;;
52776;SDS011;38656;54.260;20.822;2023-12-20T08:04:52;8.23;;;3.45;;
52776;SDS011;38656;54.260;20.822;2023-12-20T08:07:18;11.45;;;4.00;;
52776;SDS011;38656;54.260;20.822;2023-12-20T08:09:45;15.82;;;6.25;;
52776;SDS011;38656;54.260;20.822;2023-12-20T08:12:11;18.92;;;6.35;;
52776;SDS011;38656;54.260;20.822;2023-12-20T08:14:38;18.10;;;5.43;;
52776;SDS011;38656;54.260;20.822;2023-12-20T08:17:04;11.55;;;4.25;;
52776;SDS011;38656;54.260;20.822;2023-12-20T08:19:30;23.48;;;6.63;;
52776;SDS011;38656;54.260;20.822;2023-12-20T08:21:56;19.42;;;6.40;;
52776;SDS011;38656;54.260;20.822;2023-12-20T08:24:23;16.38;;;6.35;;
52776;SDS011;38656;54.260;20.822;2023-12-20T08:26:49;7.00;;;3.78;;
52776;SDS011;38656;54.260;20.822;2023-12-20T08:29:15;12.05;;;4.38;;
52776;SDS011;38656;54.260;20.822;2023-12-20T08:31:41;10.63;;;4.45;;
52776;SDS011;38656;54.260;20.822;2023-12-20T08:34:07;17.00;;;6.57;;
52776;SDS011;38656;54.260;20.822;2023-12-20T08:36:33;12.23;;;4.47;;
52776;SDS011;38656;54.260;20.822;2023-12-20T08:38:59;16.77;;;6.82;;
52776;SDS011;38656;54.260;20.822;2023-12-20T08:41:26;19.00;;;6.85;;
52776;SDS011;38656;54.260;20.822;2023-12-20T08:43:52;15.80;;;8.23;;
52776;SDS011;38656;54.260;20.822;2023-12-20T08:46:18;15.93;;;5.97;;
52776;SDS011;38656;54.260;20.822;2023-12-20T08:48:44;13.30;;;5.13;;
52776;SDS011;38656;54.260;20.822;2023-12-20T08:51:10;17.35;;;6.35;;
52776;SDS011;38656;54.260;20.822;2023-12-20T08:53:38;29.00;;;7.90;;
52776;SDS011;38656;54.260;20.822;2023-12-20T08:56:04;16.27;;;7.38;;
52776;SDS011;38656;54.260;20.822;2023-12-20T08:58:31;27.13;;;8.30;;
52776;SDS011;38656;54.260;20.822;2023-12-20T09:00:58;27.33;;;9.90;;
52776;SDS011;38656;54.260;20.822;2023-12-20T09:03:24;15.82;;;5.78;;
52776;SDS011;38656;54.260;20.822;2023-12-20T09:05:50;14.63;;;4.72;;
52776;SDS011;38656;54.260;20.822;2023-12-20T09:08:17;13.10;;;5.53;;
52776;SDS011;38656;54.260;20.822;2023-12-20T09:10:43;15.13;;;6.18;;
52776;SDS011;38656;54.260;20.822;2023-12-20T09:13:09;12.10;;;5.80;;
52776;SDS011;38656;54.260;20.822;2023-12-20T09:15:35;15.70;;;8.10;;
52776;SDS011;38656;54.260;20.822;2023-12-20T09:18:02;20.65;;;9.23;;
52776;SDS011;38656;54.260;20.822;2023-12-20T09:20:32;9.73;;;5.78;;
52776;SDS011;38656;54.260;20.822;2023-12-20T09:22:58;13.65;;;6.55;;
52776;SDS011;38656;54.260;20.822;2023-12-20T09:25:24;17.25;;;7.90;;
52776;SDS011;38656;54.260;20.822;2023-12-20T09:27:51;11.20;;;6.35;;
52776;SDS011;38656;54.260;20.822;2023-12-20T09:30:18;18.02;;;7.20;;
52776;SDS011;38656;54.260;20.822;2023-12-20T09:32:44;13.35;;;6.22;;
52776;SDS011;38656;54.260;20.822;2023-12-20T09:35:11;11.85;;;4.95;;
52776;SDS011;38656;54.260;20.822;2023-12-20T09:37:37;15.95;;;6.50;;
52776;SDS011;38656;54.260;20.822;2023-12-20T09:40:06;18.08;;;5.35;;
52776;SDS011;38656;54.260;20.822;2023-12-20T09:42:50;14.80;;;7.47;;
52776;SDS011;38656;54.260;20.822;2023-12-20T09:45:23;29.08;;;9.82;;
52776;SDS011;38656;54.260;20.822;2023-12-20T09:47:52;22.77;;;7.20;;
52776;SDS011;38656;54.260;20.822;2023-12-20T09:50:20;27.33;;;9.63;;
52776;SDS011;38656;54.260;20.822;2023-12-20T09:52:50;18.38;;;7.30;;
52776;SDS011;38656;54.260;20.822;2023-12-20T09:55:18;11.13;;;5.30;;
52776;SDS011;38656;54.260;20.822;2023-12-20T09:57:45;14.20;;;7.53;;
52776;SDS011;38656;54.260;20.822;2023-12-20T10:00:13;15.70;;;6.20;;
52776;SDS011;38656;54.260;20.822;2023-12-20T10:02:42;21.17;;;8.27;;
52776;SDS011;38656;54.260;20.822;2023-12-20T10:07:56;25.35;;;7.22;;
52776;SDS011;38656;54.260;20.822;2023-12-20T10:10:22;12.27;;;6.07;;
52776;SDS011;38656;54.260;20.822;2023-12-20T10:13:02;18.58;;;10.00;;
52776;SDS011;38656;54.260;20.822;2023-12-20T10:15:30;22.38;;;9.50;;
52776;SDS011;38656;54.260;20.822;2023-12-20T10:18:01;14.02;;;7.38;;
52776;SDS011;38656;54.260;20.822;2023-12-20T10:20:28;19.40;;;7.97;;
52776;SDS011;38656;54.260;20.822;2023-12-20T10:22:55;13.48;;;5.82;;
52776;SDS011;38656;54.260;20.822;2023-12-20T10:25:23;17.55;;;7.55;;
52776;SDS011;38656;54.260;20.822;2023-12-20T10:27:50;20.80;;;8.10;;
52776;SDS011;38656;54.260;20.822;2023-12-20T10:30:33;13.63;;;6.10;;
52776;SDS011;38656;54.260;20.822;2023-12-20T10:32:59;16.42;;;5.85;;
52776;SDS011;38656;54.260;20.822;2023-12-20T10:35:25;13.60;;;5.63;;
52776;SDS011;38656;54.260;20.822;2023-12-20T10:37:52;19.30;;;8.25;;
52776;SDS011;38656;54.260;20.822;2023-12-20T10:40:21;11.88;;;5.82;;
52776;SDS011;38656;54.260;20.822;2023-12-20T10:42:49;16.85;;;6.72;;
52776;SDS011;38656;54.260;20.822;2023-12-20T10:45:16;12.43;;;6.93;;
52776;SDS011;38656;54.260;20.822;2023-12-20T10:47:44;8.43;;;4.18;;
52776;SDS011;38656;54.260;20.822;2023-12-20T10:50:12;6.82;;;3.50;;
52776;SDS011;38656;54.260;20.822;2023-12-20T10:52:38;12.48;;;4.50;;
52776;SDS011;38656;54.260;20.822;2023-12-20T10:55:07;8.65;;;4.63;;
52776;SDS011;38656;54.260;20.822;2023-12-20T10:57:34;13.02;;;4.53;;
52776;SDS011;38656;54.260;20.822;2023-12-20T11:00:02;10.50;;;4.22;;
52776;SDS011;38656;54.260;20.822;2023-12-20T11:02:31;15.57;;;8.27;;
52776;SDS011;38656;54.260;20.822;2023-12-20T11:08:20;10.75;;;8.02;;
52776;SDS011;38656;54.260;20.822;2023-12-20T11:10:54;13.15;;;7.53;;
52776;SDS011;38656;54.260;20.822;2023-12-20T11:13:32;9.80;;;5.22;;
52776;SDS011;38656;54.260;20.822;2023-12-20T11:16:09;7.63;;;4.63;;
52776;SDS011;38656;54.260;20.822;2023-12-20T11:18:35;21.35;;;9.90;;
52776;SDS011;38656;54.260;20.822;2023-12-20T11:21:02;9.95;;;5.40;;
52776;SDS011;38656;54.260;20.822;2023-12-20T11:23:31;12.40;;;5.10;;
52776;SDS011;38656;54.260;20.822;2023-12-20T11:25:59;8.05;;;3.03;;
52776;SDS011;38656;54.260;20.822;2023-12-20T11:28:26;13.77;;;6.05;;
52776;SDS011;38656;54.260;20.822;2023-12-20T11:30:55;10.15;;;5.30;;
52776;SDS011;38656;54.260;20.822;2023-12-20T11:33:25;12.52;;;7.72;;
52776;SDS011;38656;54.260;20.822;2023-12-20T11:35:58;12.82;;;7.13;;
52776;SDS011;38656;54.260;20.822;2023-12-20T11:38:25;13.02;;;6.25;;
52776;SDS011;38656;54.260;20.822;2023-12-20T11:40:53;37.55;;;32.90;;
52776;SDS011;38656;54.260;20.822;2023-12-20T11:43:31;12.52;;;4.90;;
52776;SDS011;38656;54.260;20.822;2023-12-20T11:46:06;14.15;;;8.57;;
52776;SDS011;38656;54.260;20.822;2023-12-20T11:51:02;28.30;;;18.75;;
52776;SDS011;38656;54.260;20.822;2023-12-20T11:53:34;11.90;;;6.85;;
52776;SDS011;38656;54.260;20.822;2023-12-20T11:56:01;15.32;;;8.00;;
52776;SDS011;38656;54.260;20.822;2023-12-20T11:58:29;12.20;;;6.07;;
52776;SDS011;38656;54.260;20.822;2023-12-20T12:00:55;10.85;;;6.00;;
52776;SDS011;38656;54.260;20.822;2023-12-20T12:03:22;15.95;;;6.88;;
52776;SDS011;38656;54.260;20.822;2023-12-20T12:05:49;12.15;;;5.97;;
52776;SDS011;38656;54.260;20.822;2023-12-20T12:08:15;13.50;;;5.65;;
52776;SDS011;38656;54.260;20.822;2023-12-20T12:10:43;10.45;;;6.50;;
52776;SDS011;38656;54.260;20.822;2023-12-20T12:13:10;22.73;;;8.50;;
52776;SDS011;38656;54.260;20.822;2023-12-20T12:15:37;14.65;;;8.55;;
52776;SDS011;38656;54.260;20.822;2023-12-20T12:18:03;19.48;;;9.23;;
52776;SDS011;38656;54.260;20.822;2023-12-20T12:20:30;73.55;;;25.88;;
52776;SDS011;38656;54.260;20.822;2023-12-20T12:23:03;13.23;;;7.45;;
52776;SDS011;38656;54.260;20.822;2023-12-20T12:25:31;11.63;;;7.82;;
52776;SDS011;38656;54.260;20.822;2023-12-20T12:28:01;18.77;;;9.98;;
52776;SDS011;38656;54.260;20.822;2023-12-20T12:30:28;15.98;;;11.80;;
52776;SDS011;38656;54.260;20.822;2023-12-20T12:32:55;18.48;;;9.73;;
52776;SDS011;38656;54.260;20.822;2023-12-20T12:35:23;13.43;;;8.70;;
52776;SDS011;38656;54.260;20.822;2023-12-20T12:37:49;11.25;;;6.97;;
52776;SDS011;38656;54.260;20.822;2023-12-20T12:40:16;12.85;;;7.88;;
52776;SDS011;38656;54.260;20.822;2023-12-20T12:42:43;12.43;;;7.05;;
52776;SDS011;38656;54.260;20.822;2023-12-20T12:45:10;15.75;;;7.35;;
52776;SDS011;38656;54.260;20.822;2023-12-20T12:47:37;13.80;;;7.00;;
52776;SDS011;38656;54.260;20.822;2023-12-20T12:50:04;17.60;;;9.32;;
52776;SDS011;38656;54.260;20.822;2023-12-20T12:52:31;16.15;;;8.90;;
52776;SDS011;38656;54.260;20.822;2023-12-20T12:54:57;13.40;;;8.55;;
52776;SDS011;38656;54.260;20.822;2023-12-20T12:57:23;14.25;;;7.93;;
52776;SDS011;38656;54.260;20.822;2023-12-20T12:59:49;16.65;;;9.63;;
52776;SDS011;38656;54.260;20.822;2023-12-20T13:02:16;19.17;;;10.43;;
52776;SDS011;38656;54.260;20.822;2023-12-20T13:04:42;14.13;;;6.53;;
52776;SDS011;38656;54.260;20.822;2023-12-20T13:07:08;8.55;;;6.30;;
52776;SDS011;38656;54.260;20.822;2023-12-20T13:09:36;13.52;;;6.18;;
52776;SDS011;38656;54.260;20.822;2023-12-20T13:12:03;11.32;;;5.85;;
52776;SDS011;38656;54.260;20.822;2023-12-20T13:14:32;19.75;;;8.20;;
52776;SDS011;38656;54.260;20.822;2023-12-20T13:17:00;12.93;;;5.97;;
52776;SDS011;38656;54.260;20.822;2023-12-20T13:19:29;19.35;;;8.70;;
52776;SDS011;38656;54.260;20.822;2023-12-20T13:21:58;13.38;;;6.65;;
52776;SDS011;38656;54.260;20.822;2023-12-20T13:24:24;18.42;;;8.88;;
52776;SDS011;38656;54.260;20.822;2023-12-20T13:26:50;19.40;;;9.40;;
52776;SDS011;38656;54.260;20.822;2023-12-20T13:41:17;15.68;;;9.25;;
52776;SDS011;38656;54.260;20.822;2023-12-20T13:43:43;13.50;;;7.55;;
52776;SDS011;38656;54.260;20.822;2023-12-20T13:46:10;19.83;;;11.35;;
52776;SDS011;38656;54.260;20.822;2023-12-20T13:48:36;9.77;;;8.05;;
52776;SDS011;38656;54.260;20.822;2023-12-20T13:51:03;19.20;;;8.50;;
52776;SDS011;38656;54.260;20.822;2023-12-20T13:53:29;17.38;;;10.50;;
52776;SDS011;38656;54.260;20.822;2023-12-20T13:55:55;18.70;;;9.52;;
52776;SDS011;38656;54.260;20.822;2023-12-20T13:58:22;19.73;;;10.27;;
52776;SDS011;38656;54.260;20.822;2023-12-20T14:00:49;31.45;;;10.90;;
52776;SDS011;38656;54.260;20.822;2023-12-20T14:03:15;29.40;;;15.32;;
52776;SDS011;38656;54.260;20.822;2023-12-20T14:05:41;21.33;;;13.00;;
52776;SDS011;38656;54.260;20.822;2023-12-20T14:08:07;23.17;;;12.98;;
52776;SDS011;38656;54.260;20.822;2023-12-20T14:10:34;25.92;;;15.00;;
52776;SDS011;38656;54.260;20.822;2023-12-20T14:13:00;24.25;;;15.10;;
52776;SDS011;38656;54.260;20.822;2023-12-20T14:15:26;23.80;;;11.18;;
52776;SDS011;38656;54.260;20.822;2023-12-20T14:17:52;14.18;;;8.98;;
52776;SDS011;38656;54.260;20.822;2023-12-20T14:20:19;17.00;;;11.43;;
52776;SDS011;38656;54.260;20.822;2023-12-20T14:22:45;14.50;;;12.10;;
52776;SDS011;38656;54.260;20.822;2023-12-20T14:25:13;20.70;;;16.45;;
52776;SDS011;38656;54.260;20.822;2023-12-20T14:27:39;19.10;;;13.00;;
52776;SDS011;38656;54.260;20.822;2023-12-20T14:30:08;21.05;;;14.40;;
52776;SDS011;38656;54.260;20.822;2023-12-20T14:32:35;22.08;;;14.43;;
52776;SDS011;38656;54.260;20.822;2023-12-20T14:35:05;21.25;;;18.42;;
52776;SDS011;38656;54.260;20.822;2023-12-20T14:37:33;22.95;;;16.13;;
52776;SDS011;38656;54.260;20.822;2023-12-20T14:40:00;18.15;;;15.60;;